createdAt,value
2022-09-13T00:01:37.712Z,96907.19
2022-09-13T00:04:04.928Z,96908.16
2022-09-13T00:06:32.178Z,96900.41
2022-09-13T00:09:01.322Z,96899.75
2022-09-13T00:11:30.862Z,96898.38
2022-09-13T00:13:59.569Z,96892.13
2022-09-13T00:16:29.516Z,96893.75
2022-09-13T00:18:57.491Z,96899.03
2022-09-13T00:21:25.779Z,96896.59
2022-09-13T00:23:55.083Z,96897.41
2022-09-13T00:26:27.178Z,96891.13
2022-09-13T00:28:57.414Z,96884.00
2022-09-13T00:31:28.131Z,96884.31
2022-09-13T00:33:57.292Z,96890.47
2022-09-13T00:36:24.664Z,96883.84
2022-09-13T00:38:52.079Z,96889.16
2022-09-13T00:41:21.292Z,96894.63
2022-09-13T00:43:52.256Z,96899.78
2022-09-13T00:46:43.691Z,96884.22
2022-09-13T00:49:18.310Z,96897.09
2022-09-13T00:51:59.545Z,96899.75
2022-09-13T00:54:33.353Z,96900.25
2022-09-13T00:57:04.626Z,96898.44
2022-09-13T01:00:09.937Z,96901.91
2022-09-13T01:02:37.598Z,96897.78
2022-09-13T01:05:05.270Z,96899.56
2022-09-13T01:07:33.718Z,96896.94
2022-09-13T01:10:03.224Z,96888.19
2022-09-13T01:12:35.754Z,96895.78
2022-09-13T01:15:05.318Z,96895.09
2022-09-13T01:17:34.567Z,96888.47
2022-09-13T01:20:04.000Z,96893.41
2022-09-13T01:22:56.191Z,96885.16
2022-09-13T01:26:01.098Z,96884.84
2022-09-13T01:28:53.302Z,96880.53
2022-09-13T01:31:43.265Z,96879.72
2022-09-13T01:34:28.794Z,96876.25
2022-09-13T01:36:58.886Z,96880.53
2022-09-13T01:39:52.708Z,96882.19
2022-09-13T01:43:03.490Z,96872.44
2022-09-13T01:46:01.377Z,96868.66
2022-09-13T01:49:05.595Z,96872.94
2022-09-13T01:52:09.143Z,96869.63
2022-09-13T01:54:43.269Z,96874.59
2022-09-13T01:57:20.328Z,96871.78
2022-09-13T01:59:54.675Z,96872.94
2022-09-13T02:02:54.407Z,96859.56
2022-09-13T02:05:46.231Z,96862.38
2022-09-13T02:08:22.397Z,96862.00
2022-09-13T02:11:11.679Z,96860.69
2022-09-13T02:13:57.495Z,96862.00
2022-09-13T02:16:39.934Z,96865.44
2022-09-13T02:19:15.651Z,96860.81
2022-09-13T02:21:48.852Z,96857.34
2022-09-13T02:24:20.080Z,96851.75
2022-09-13T02:26:53.079Z,96850.94
2022-09-13T02:29:24.782Z,96849.63
2022-09-13T02:32:04.569Z,96848.16
2022-09-13T02:34:43.704Z,96846.19
2022-09-13T02:37:13.553Z,96856.25
2022-09-13T02:39:50.523Z,96854.13
2022-09-13T02:42:26.480Z,96855.66
2022-09-13T02:44:55.757Z,96852.34
2022-09-13T02:47:41.769Z,96853.47
2022-09-13T02:50:34.089Z,96846.03
2022-09-13T02:53:15.884Z,96858.78
2022-09-13T02:55:48.835Z,96856.44
2022-09-13T02:58:21.511Z,96867.19
2022-09-13T03:00:51.182Z,96860.75
2022-09-13T03:03:18.715Z,96860.38
2022-09-13T03:05:45.793Z,96854.13
2022-09-13T03:08:17.782Z,96856.06
2022-09-13T03:11:35.208Z,96861.22
2022-09-13T03:14:13.830Z,96849.13
2022-09-13T03:16:51.789Z,96855.72
2022-09-13T03:19:40.701Z,96856.06
2022-09-13T03:22:17.254Z,96849.25
2022-09-13T03:25:03.610Z,96848.63
2022-09-13T03:28:08.515Z,96864.00
2022-09-13T03:30:40.482Z,96847.66
2022-09-13T03:33:21.730Z,96856.22
2022-09-13T03:36:18.838Z,96855.75
2022-09-13T03:39:02.261Z,96863.38
2022-09-13T03:41:55.527Z,96865.66
2022-09-13T03:44:28.462Z,96862.56
2022-09-13T03:47:05.239Z,96854.81
2022-09-13T03:49:35.476Z,96863.22
2022-09-13T03:52:02.888Z,96854.16
2022-09-13T03:54:32.966Z,96867.03
2022-09-13T03:57:11.539Z,96855.75
2022-09-13T03:59:42.256Z,96856.44
2022-09-13T04:02:12.915Z,96860.72
2022-09-13T04:04:41.688Z,96861.19
2022-09-13T04:07:35.152Z,96862.88
2022-09-13T04:10:05.884Z,96856.25
2022-09-13T04:12:43.965Z,96858.41
2022-09-13T04:15:22.897Z,96867.34
2022-09-13T04:17:52.443Z,96875.41
2022-09-13T04:20:22.208Z,96877.53
2022-09-13T04:23:02.385Z,96867.66
2022-09-13T04:25:31.833Z,96871.25
2022-09-13T04:28:09.217Z,96865.97
2022-09-13T04:30:46.344Z,96870.72
2022-09-13T04:33:14.079Z,96875.50
2022-09-13T04:35:41.266Z,96882.75
2022-09-13T04:38:09.393Z,96864.75
2022-09-13T04:40:37.578Z,96876.50
2022-09-13T04:43:04.981Z,96868.22
2022-09-13T04:45:32.120Z,96867.88
2022-09-13T04:47:59.122Z,96886.25
2022-09-13T04:50:26.563Z,96891.19
2022-09-13T04:53:03.581Z,96884.97
2022-09-13T04:55:42.987Z,96880.16
2022-09-13T04:58:34.750Z,96889.75
2022-09-13T05:01:13.210Z,96898.34
2022-09-13T05:03:47.637Z,96902.50
2022-09-13T05:06:21.753Z,96900.69
2022-09-13T05:09:03.357Z,96899.41
2022-09-13T05:11:32.474Z,96913.16
2022-09-13T05:14:01.218Z,96903.72
2022-09-13T05:16:31.650Z,96898.44
2022-09-13T05:18:58.923Z,96905.03
2022-09-13T05:21:28.135Z,96902.69
2022-09-13T05:23:56.627Z,96905.63
2022-09-13T05:30:25.079Z,96907.75
2022-09-13T05:32:52.210Z,96899.16
2022-09-13T05:35:19.165Z,96894.78
2022-09-13T05:37:51.117Z,96898.38
2022-09-13T05:40:25.781Z,96898.59
2022-09-13T05:42:55.281Z,96879.00
2022-09-13T05:45:23.759Z,96881.44
2022-09-13T05:47:53.217Z,96883.69
2022-09-13T05:50:45.199Z,96885.84
2022-09-13T05:53:12.315Z,96888.47
2022-09-13T05:55:40.578Z,96890.38
2022-09-13T05:58:12.200Z,96886.28
2022-09-13T06:00:39.727Z,96879.41
2022-09-13T06:03:08.753Z,96882.22
2022-09-13T06:05:37.172Z,96891.28
2022-09-13T06:08:04.198Z,96889.13
2022-09-13T06:10:33.055Z,96883.22
2022-09-13T06:13:01.922Z,96882.44
2022-09-13T06:15:33.307Z,96879.84
2022-09-13T06:18:08.300Z,96884.84
2022-09-13T06:20:36.573Z,96889.59
2022-09-13T06:23:05.496Z,96882.63
2022-09-13T06:25:34.213Z,96893.31
2022-09-13T06:28:06.424Z,96892.16
2022-09-13T06:30:48.532Z,96894.81
2022-09-13T06:33:17.072Z,96886.38
2022-09-13T06:35:47.717Z,96877.75
2022-09-13T06:38:16.533Z,96887.97
2022-09-13T06:40:55.059Z,96896.00
2022-09-13T06:43:24.887Z,96890.44
2022-09-13T06:46:00.430Z,96898.66
2022-09-13T06:48:32.961Z,96900.09
2022-09-13T06:51:16.840Z,96901.75
2022-09-13T06:53:49.200Z,96896.38
2022-09-13T06:56:21.195Z,96909.53
2022-09-13T06:58:52.548Z,96907.91
2022-09-13T07:01:24.484Z,96918.41
2022-09-13T07:03:59.168Z,96909.69
2022-09-13T07:06:33.654Z,96916.66
2022-09-13T07:09:29.622Z,96926.78
2022-09-13T07:11:58.972Z,96933.63
2022-09-13T07:14:32.499Z,96938.13
2022-09-13T07:17:05.706Z,96932.38
2022-09-13T07:19:34.770Z,96934.19
2022-09-13T07:22:41.820Z,96942.53
2022-09-13T07:25:11.608Z,96943.50
2022-09-13T07:27:43.366Z,96937.41
2022-09-13T07:30:12.770Z,96936.97
2022-09-13T07:32:42.754Z,96936.53
2022-09-13T07:35:11.875Z,96936.25
2022-09-13T07:37:43.592Z,96942.44
2022-09-13T07:40:13.792Z,96946.09
2022-09-13T07:42:42.140Z,96943.91
2022-09-13T07:45:11.512Z,96933.34
2022-09-13T07:47:40.505Z,96936.78
2022-09-13T07:50:09.145Z,96948.41
2022-09-13T07:52:38.825Z,96940.97
2022-09-13T07:55:08.235Z,96950.56
2022-09-13T07:57:45.865Z,96938.03
2022-09-13T08:00:24.070Z,96947.09
2022-09-13T08:02:58.724Z,96948.78
2022-09-13T08:05:33.526Z,96946.63
2022-09-13T08:08:02.345Z,96941.84
2022-09-13T08:10:30.951Z,96941.53
2022-09-13T08:13:02.586Z,96946.72
2022-09-13T08:15:31.132Z,96944.84
2022-09-13T08:17:59.852Z,96937.84
2022-09-13T08:20:28.750Z,96933.38
2022-09-13T08:22:57.834Z,96938.94
2022-09-13T08:25:31.442Z,96935.09
2022-09-13T08:28:00.623Z,96943.19
2022-09-13T08:30:33.964Z,96946.97
2022-09-13T08:33:03.922Z,96950.97
2022-09-13T08:35:37.218Z,96942.09
2022-09-13T08:38:12.399Z,96940.09
2022-09-13T08:40:50.355Z,96941.50
2022-09-13T08:43:45.348Z,96938.13
2022-09-13T08:46:31.885Z,96932.34
2022-09-13T08:49:26.611Z,96929.94
2022-09-13T08:52:04.207Z,96927.63
2022-09-13T08:54:35.327Z,96919.72
2022-09-13T08:57:42.507Z,96910.09
2022-09-13T09:00:20.679Z,96919.34
2022-09-13T09:06:03.464Z,96923.72
2022-09-13T09:06:19.002Z,96928.06
2022-09-13T09:08:47.743Z,96920.88
2022-09-13T09:11:36.590Z,96918.63
2022-09-13T09:14:32.541Z,96916.22
2022-09-13T09:17:18.627Z,96927.44
2022-09-13T09:20:29.196Z,96922.31
2022-09-13T09:22:58.370Z,96909.34
2022-09-13T09:25:36.113Z,96922.56
2022-09-13T09:28:14.551Z,96910.88
2022-09-13T09:31:11.272Z,96905.97
2022-09-13T09:33:56.182Z,96901.50
2022-09-13T09:36:25.873Z,96897.03
2022-09-13T09:38:57.221Z,96896.53
2022-09-13T09:41:38.805Z,96894.59
2022-09-13T09:44:34.851Z,96885.94
2022-09-13T09:47:13.926Z,96875.22
2022-09-13T09:50:12.914Z,96878.66
2022-09-13T09:53:26.391Z,96877.59
2022-09-13T09:56:42.661Z,96876.94
2022-09-13T09:59:33.671Z,96869.22
2022-09-13T10:02:20.894Z,96868.44
2022-09-13T10:04:58.349Z,96876.16
2022-09-13T10:07:27.817Z,96883.25
2022-09-13T10:10:20.178Z,96889.56
2022-09-13T10:13:00.005Z,96882.47
2022-09-13T10:15:37.221Z,96876.66
2022-09-13T10:18:43.016Z,96874.13
2022-09-13T10:21:21.153Z,96861.75
2022-09-13T10:23:51.798Z,96860.47
2022-09-13T10:26:30.143Z,96863.25
2022-09-13T10:29:12.412Z,96855.31
2022-09-13T10:31:44.707Z,96868.19
2022-09-13T10:34:24.884Z,96877.63
2022-09-13T10:37:16.659Z,96868.91
2022-09-13T10:40:02.107Z,96869.34
2022-09-13T10:42:32.258Z,96873.66
2022-09-13T10:45:08.257Z,96873.94
2022-09-13T10:47:37.356Z,96867.91
2022-09-13T10:50:32.878Z,96871.13
2022-09-13T10:53:02.681Z,96860.47
2022-09-13T10:55:49.109Z,96862.22
2022-09-13T10:58:22.876Z,96865.50
2022-09-13T11:01:59.823Z,96853.53
2022-09-13T11:04:50.173Z,96844.00
2022-09-13T11:08:14.089Z,96852.63
2022-09-13T11:11:36.202Z,96848.66
2022-09-13T11:14:17.041Z,96850.44
2022-09-13T11:17:33.495Z,96855.91
2022-09-13T11:20:34.026Z,96854.16
2022-09-13T11:23:25.183Z,96843.69
2022-09-13T11:26:10.317Z,96850.41
2022-09-13T11:29:23.809Z,96850.75
2022-09-13T11:32:33.351Z,96833.94
2022-09-13T11:35:31.904Z,96826.00
2022-09-13T11:38:47.383Z,96830.31
2022-09-13T11:41:48.182Z,96836.22
2022-09-13T11:44:39.913Z,96843.09
2022-09-13T11:47:38.264Z,96838.84
2022-09-13T11:50:45.942Z,96827.44
2022-09-13T11:53:58.710Z,96834.09
2022-09-13T11:56:54.748Z,96824.97
2022-09-13T11:59:57.442Z,96834.13
2022-09-13T12:02:39.800Z,96825.56
2022-09-13T12:05:28.263Z,96829.81
2022-09-13T12:08:23.763Z,96843.28
2022-09-13T12:11:03.291Z,96838.38
2022-09-13T12:13:47.217Z,96844.09
2022-09-13T12:16:25.723Z,96840.06
2022-09-13T12:19:03.383Z,96841.94
2022-09-13T12:21:47.828Z,96826.81
2022-09-13T12:24:50.219Z,96819.09
2022-09-13T12:27:36.376Z,96812.44
2022-09-13T12:30:21.106Z,96820.59
2022-09-13T12:35:47.672Z,96819.94
2022-09-13T12:38:58.663Z,96806.34
2022-09-13T12:41:33.996Z,96813.44
2022-09-13T12:44:43.127Z,96817.56
2022-09-13T12:47:43.514Z,96819.97
2022-09-13T12:50:44.010Z,96821.31
2022-09-13T12:53:37.385Z,96821.22
2022-09-13T12:56:44.498Z,96823.47
2022-09-13T13:00:05.244Z,96822.88
2022-09-13T13:03:14.979Z,96818.88
2022-09-13T13:05:53.111Z,96816.59
2022-09-13T13:08:22.338Z,96819.06
2022-09-13T13:11:12.510Z,96819.97
2022-09-13T13:13:47.479Z,96816.72
2022-09-13T13:16:35.874Z,96820.06
2022-09-13T13:19:31.542Z,96819.56
2022-09-13T13:22:45.478Z,96817.38
2022-09-13T13:25:34.722Z,96825.50
2022-09-13T13:28:08.259Z,96832.16
2022-09-13T13:33:58.014Z,96834.22
2022-09-13T13:36:59.318Z,96824.91
2022-09-13T13:39:28.892Z,96823.66
2022-09-13T13:42:09.331Z,96840.25
2022-09-13T13:44:39.284Z,96839.66
2022-09-13T13:47:11.612Z,96827.78
2022-09-13T13:49:51.458Z,96832.31
2022-09-13T13:52:29.496Z,96832.75
2022-09-13T13:55:05.945Z,96836.44
2022-09-13T13:57:39.698Z,96839.06
2022-09-13T14:00:21.818Z,96833.72
2022-09-13T14:02:56.089Z,96841.78
2022-09-13T14:05:50.927Z,96838.44
2022-09-13T14:08:58.393Z,96833.78
2022-09-13T14:11:57.299Z,96841.31
2022-09-13T14:14:49.769Z,96846.84
2022-09-13T14:17:39.486Z,96845.09
2022-09-13T14:20:20.631Z,96858.03
2022-09-13T14:22:55.496Z,96845.47
2022-09-13T14:25:28.415Z,96850.91
2022-09-13T14:28:04.217Z,96852.09
2022-09-13T14:30:43.558Z,96852.34
2022-09-13T14:33:32.314Z,96847.78
2022-09-13T14:36:08.748Z,96849.00
2022-09-13T14:38:39.535Z,96849.03
2022-09-13T14:41:23.627Z,96849.44
2022-09-13T14:43:53.362Z,96853.56
2022-09-13T14:46:41.041Z,96853.34
2022-09-13T14:49:17.888Z,96852.44
2022-09-13T14:52:04.392Z,96848.22
2022-09-13T14:54:46.134Z,96848.34
2022-09-13T14:57:45.605Z,96846.38
2022-09-13T15:00:27.506Z,96866.31
2022-09-13T15:03:16.679Z,96859.41
2022-09-13T15:06:04.902Z,96858.47
2022-09-13T15:08:37.654Z,96856.06
2022-09-13T15:11:09.902Z,96859.19
2022-09-13T15:13:45.247Z,96855.47
2022-09-13T15:16:34.884Z,96853.44
2022-09-13T15:19:26.253Z,96849.28
2022-09-13T15:22:05.840Z,96850.53
2022-09-13T15:24:37.225Z,96850.09
2022-09-13T15:27:20.070Z,96849.53
2022-09-13T15:30:00.740Z,96850.91
2022-09-13T15:32:46.612Z,96849.88
2022-09-13T15:35:44.569Z,96846.72
2022-09-13T15:38:35.308Z,96850.72
2022-09-13T15:41:15.570Z,96852.50
2022-09-13T15:43:47.683Z,96859.75
2022-09-13T15:46:19.243Z,96867.78
2022-09-13T15:49:08.119Z,96856.81
2022-09-13T15:51:39.221Z,96863.44
2022-09-13T15:54:13.443Z,96861.50
2022-09-13T15:56:47.173Z,96865.22
2022-09-13T15:59:25.684Z,96877.19
2022-09-13T16:01:55.346Z,96872.31
2022-09-13T16:04:27.704Z,96876.81
2022-09-13T16:06:58.808Z,96881.19
2022-09-13T16:09:33.854Z,96886.75
2022-09-13T16:12:08.182Z,96884.09
2022-09-13T16:14:40.163Z,96887.41
2022-09-13T16:17:23.593Z,96888.88
2022-09-13T16:19:53.263Z,96880.81
2022-09-13T16:22:23.733Z,96890.88
2022-09-13T16:25:00.946Z,96882.44
2022-09-13T16:27:31.936Z,96890.81
2022-09-13T16:30:05.040Z,96891.81
2022-09-13T16:32:36.341Z,96887.06
2022-09-13T16:35:04.967Z,96895.66
2022-09-13T16:37:40.556Z,96899.94
2022-09-13T16:40:14.177Z,96898.41
2022-09-13T16:42:46.023Z,96896.88
2022-09-13T16:45:18.033Z,96901.13
2022-09-13T16:47:54.339Z,96895.47
2022-09-13T16:50:25.438Z,96907.06
2022-09-13T16:52:57.568Z,96904.50
2022-09-13T16:55:29.619Z,96905.41
2022-09-13T16:58:02.255Z,96912.03
2022-09-13T17:00:38.202Z,96921.72
2022-09-13T17:03:12.072Z,96911.78
2022-09-13T17:05:51.965Z,96922.41
2022-09-13T17:08:32.289Z,96927.50
2022-09-13T17:11:08.041Z,96930.06
2022-09-13T17:13:37.125Z,96931.38
2022-09-13T17:16:08.743Z,96937.06
2022-09-13T17:18:40.661Z,96938.09
2022-09-13T17:21:12.895Z,96935.59
2022-09-13T17:23:43.637Z,96943.09
2022-09-13T17:26:16.439Z,96944.84
2022-09-13T17:28:46.952Z,96953.94
2022-09-13T17:31:20.336Z,96957.31
2022-09-13T17:33:48.564Z,96959.03
2022-09-13T17:36:16.547Z,96963.50
2022-09-13T17:38:44.412Z,96975.97
2022-09-13T17:41:18.919Z,96975.19
2022-09-13T17:43:54.118Z,96972.44
2022-09-13T17:46:26.461Z,96982.13
2022-09-13T17:48:58.685Z,96985.69
2022-09-13T17:51:30.510Z,96992.38
2022-09-13T17:54:13.601Z,96995.06
2022-09-13T17:57:01.195Z,96996.31
2022-09-13T17:59:31.237Z,96997.78
2022-09-13T18:02:06.112Z,97004.84
2022-09-13T18:04:35.205Z,97003.69
2022-09-13T18:07:03.455Z,97002.94
2022-09-13T18:09:42.455Z,97004.09
2022-09-13T18:12:10.606Z,97006.59
2022-09-13T18:14:44.771Z,97010.59
2022-09-13T18:18:19.373Z,97011.28
2022-09-13T18:20:06.868Z,97012.16
2022-09-13T18:22:37.649Z,97018.66
2022-09-13T18:25:08.576Z,97017.44
2022-09-13T18:27:36.141Z,97024.59
2022-09-13T18:30:07.644Z,97021.78
2022-09-13T18:32:40.732Z,97031.91
2022-09-13T18:35:31.365Z,97030.91
2022-09-13T18:38:31.982Z,97033.28
2022-09-13T18:41:14.070Z,97035.94
2022-09-13T18:43:48.114Z,97041.56
2022-09-13T18:46:43.378Z,97033.66
2022-09-13T18:49:20.223Z,97037.59
2022-09-13T18:51:52.691Z,97054.16
2022-09-13T18:54:24.359Z,97048.03
2022-09-13T18:57:01.520Z,97054.50
2022-09-13T18:59:36.595Z,97050.38
2022-09-13T19:02:12.292Z,97058.13
2022-09-13T19:04:45.032Z,97056.66
2022-09-13T19:07:13.094Z,97057.13
2022-09-13T19:09:49.532Z,97067.09
2022-09-13T19:12:23.268Z,97065.59
2022-09-13T19:14:55.587Z,97070.53
2022-09-13T19:17:24.075Z,97071.38
2022-09-13T19:19:55.827Z,97065.25
2022-09-13T19:22:23.342Z,97066.25
2022-09-13T19:24:53.339Z,97059.13
2022-09-13T19:27:30.080Z,97072.03
2022-09-13T19:29:59.491Z,97062.41
2022-09-13T19:32:30.797Z,97074.81
2022-09-13T19:38:21.580Z,97071.22
2022-09-13T19:41:04.766Z,97064.09
2022-09-13T19:43:54.601Z,97070.22
2022-09-13T19:46:27.826Z,97070.72
2022-09-13T19:48:57.195Z,97069.34
2022-09-13T19:51:31.054Z,97075.00
2022-09-13T19:54:01.074Z,97070.69
2022-09-13T19:56:34.421Z,97074.81
2022-09-13T19:59:02.558Z,97071.97
2022-09-13T20:01:36.654Z,97069.66
2022-09-13T20:04:12.267Z,97067.63
2022-09-13T20:06:45.826Z,97074.59
2022-09-13T20:09:15.799Z,97077.91
2022-09-13T20:11:48.919Z,97079.56
2022-09-13T20:14:22.875Z,97090.81
2022-09-13T20:16:51.812Z,97087.16
2022-09-13T20:22:12.642Z,97093.56
2022-09-13T20:24:40.151Z,97088.25
2022-09-13T20:27:08.370Z,97086.44
2022-09-13T20:29:36.130Z,97084.47
2022-09-13T20:32:17.685Z,97093.34
2022-09-13T20:34:44.844Z,97089.38
2022-09-13T20:37:15.679Z,97098.59
2022-09-13T20:39:42.975Z,97100.59
2022-09-13T20:42:14.173Z,97101.72
2022-09-13T20:44:43.005Z,97106.06
2022-09-13T20:47:12.022Z,97108.88
2022-09-13T20:49:39.607Z,97101.13
2022-09-13T20:52:06.674Z,97097.75
2022-09-13T20:54:34.571Z,97100.88
2022-09-13T20:57:02.097Z,97103.38
2022-09-13T20:59:32.807Z,97101.38
2022-09-13T21:02:00.150Z,97102.22
2022-09-13T21:04:27.953Z,97103.38
2022-09-13T21:07:14.990Z,97098.91
2022-09-13T21:09:43.853Z,97101.94
2022-09-13T21:12:20.461Z,97105.75
2022-09-13T21:14:51.679Z,97105.31
2022-09-13T21:17:19.349Z,97105.44
2022-09-13T21:19:46.750Z,97105.25
2022-09-13T21:22:15.014Z,97096.50
2022-09-13T21:24:47.970Z,97103.75
2022-09-13T21:27:15.634Z,97084.88
2022-09-13T21:29:43.553Z,97103.06
2022-09-13T21:32:10.836Z,97096.44
2022-09-13T21:34:39.960Z,97087.47
2022-09-13T21:37:07.384Z,97094.28
2022-09-13T21:39:35.800Z,97095.09
2022-09-13T21:42:04.506Z,97093.59
2022-09-13T21:44:32.499Z,97097.75
2022-09-13T21:47:03.227Z,97094.91
2022-09-13T21:49:30.511Z,97094.47
2022-09-13T21:51:57.803Z,97089.53
2022-09-13T21:54:32.404Z,97097.41
2022-09-13T21:57:00.424Z,97097.56
2022-09-13T21:59:28.520Z,97091.91
2022-09-13T22:01:58.993Z,97091.72
2022-09-13T22:04:37.252Z,97097.94
2022-09-13T22:07:05.550Z,97089.34
2022-09-13T22:09:42.402Z,97094.09
2022-09-13T22:12:13.881Z,97090.00
2022-09-13T22:14:41.341Z,97085.28
2022-09-13T22:17:09.177Z,97089.97
2022-09-13T22:19:36.402Z,97088.63
2022-09-13T22:22:04.294Z,97087.88
2022-09-13T22:24:36.392Z,97084.25
2022-09-13T22:27:04.161Z,97085.19
2022-09-13T22:29:31.792Z,97088.13
2022-09-13T22:32:01.599Z,97089.72
2022-09-13T22:34:31.313Z,97089.03
2022-09-13T22:37:00.763Z,97095.06
2022-09-13T22:39:29.083Z,97091.47
2022-09-13T22:41:57.608Z,97086.84
2022-09-13T22:44:31.277Z,97096.22
2022-09-13T22:47:01.025Z,97098.47
2022-09-13T22:49:28.490Z,97097.09
2022-09-13T22:52:00.619Z,97101.03
2022-09-13T22:54:29.045Z,97100.50
2022-09-13T22:56:56.102Z,97107.19
2022-09-13T22:59:24.448Z,97099.28
2022-09-13T23:01:51.784Z,97106.38
2022-09-13T23:04:20.084Z,97099.97
2022-09-13T23:06:51.334Z,97096.66
2022-09-13T23:09:19.274Z,97092.78
2022-09-13T23:11:46.969Z,97089.63
2022-09-13T23:14:16.544Z,97088.41
2022-09-13T23:16:52.264Z,97095.13
2022-09-13T23:19:22.903Z,97097.38
2022-09-13T23:22:00.350Z,97098.88
2022-09-13T23:24:30.599Z,97100.16
2022-09-13T23:26:58.593Z,97112.34
2022-09-13T23:29:35.693Z,97105.94
2022-09-13T23:32:04.066Z,97100.59
2022-09-13T23:34:33.231Z,97100.44
2022-09-13T23:37:12.442Z,97101.88
2022-09-13T23:39:50.410Z,97105.78
2022-09-13T23:42:26.908Z,97104.25
2022-09-13T23:44:54.949Z,97102.75
2022-09-13T23:47:21.927Z,97104.41
2022-09-13T23:50:17.158Z,97110.75
2022-09-13T23:53:20.473Z,97104.81
2022-09-13T23:55:55.014Z,97108.25
2022-09-13T23:58:23.780Z,97109.81
